Ana Sayfa
METAR-TAF:

METAR-TAF

Havaalanları :

Calvinia, Güney Afrika

Enlem: 31-28-56S, Boylam: 19-45-43E, yükseklik: 977 m

Güncel hava durumu gözlemi

Rapor saat 08:40 UTC de 14 saat ve 59 dakika önce yapıldı.
Rüzgar batı/kuzeybatıdan 3 kt
Sıcaklık 22°C
Nem 43%
Basınç 1018 hPa
Görüş mesafesi 10 km veya daha fazla
1500 m altında bulut yok ve kümülonimbus yok

METAR: FACV 270840Z 30003KT CAVOK 22/09 Q1018

Saat: 01:39 (23:39 UTC)


TAF: eksik

4.000'den fazla havaalanı için hava durumu gözlemleri ve tahminleri (METAR ve TAF raporları).

Kullanılabilir istasyonlar harita üzerinde sarı ve kırmızı noktalarla gösterilir.

İstasyonun adını görmek için fareyi noktanın üzerinde gezdirin.

Sonrasında hava gözlem ve tahminlerini görmek için tıklayın.

Haritayı değiştirmek için: yaklaştırmak için siyah artı işaretli yeşil düğmeye ve uzaklaştırmak için de eksi işaretli düğmeye hızla tıklayın; bitişik haritalar için yeşil okları kullanın.


METAR-TAF: